createdAt,value
2018-07-25T00:00:51.946Z,8.73
2018-07-25T00:03:22.115Z,8.03
2018-07-25T00:05:53.342Z,11.83
2018-07-25T00:08:23.688Z,8.33
2018-07-25T00:10:54.761Z,7.70
2018-07-25T00:13:26.407Z,7.87
2018-07-25T00:15:56.938Z,10.10
2018-07-25T00:18:27.107Z,8.90
2018-07-25T00:20:57.666Z,7.47
2018-07-25T00:23:27.960Z,8.30
2018-07-25T00:25:58.180Z,9.90
2018-07-25T00:28:28.404Z,8.40
2018-07-25T00:30:58.933Z,7.63
2018-07-25T00:33:29.000Z,8.60
2018-07-25T00:35:59.358Z,7.53
2018-07-25T00:38:29.635Z,10.07
2018-07-25T00:40:59.834Z,9.00
2018-07-25T00:43:30.144Z,7.13
2018-07-25T00:46:00.406Z,8.13
2018-07-25T00:48:30.468Z,10.17
2018-07-25T00:51:00.755Z,10.50
2018-07-25T00:53:32.004Z,10.63
2018-07-25T00:56:02.200Z,7.40
2018-07-25T00:58:32.451Z,7.20
2018-07-25T01:01:02.554Z,9.20
2018-07-25T01:03:33.520Z,6.57
2018-07-25T01:06:03.781Z,6.07
2018-07-25T01:08:34.296Z,7.03
2018-07-25T01:11:04.292Z,7.70
2018-07-25T01:13:35.458Z,6.73
2018-07-25T01:16:06.042Z,5.90
2018-07-25T01:18:36.367Z,10.63
2018-07-25T01:21:06.583Z,6.20
2018-07-25T01:23:36.728Z,5.97
2018-07-25T01:26:07.232Z,7.30
2018-07-25T01:28:37.487Z,7.33
2018-07-25T01:31:07.878Z,10.00
2018-07-25T01:33:38.412Z,6.80
2018-07-25T01:36:08.113Z,11.03
2018-07-25T01:38:38.356Z,16.53
2018-07-25T01:41:08.627Z,7.37
2018-07-25T01:43:38.893Z,13.57
2018-07-25T01:46:09.431Z,9.00
2018-07-25T01:48:39.542Z,10.83
2018-07-25T01:51:09.746Z,10.10
2018-07-25T01:53:40.266Z,7.67
2018-07-25T01:56:10.314Z,9.30
2018-07-25T01:58:40.491Z,10.80
2018-07-25T02:01:10.452Z,11.10
2018-07-25T02:03:41.152Z,12.27
2018-07-25T02:06:11.349Z,8.17
2018-07-25T02:08:41.969Z,11.53
2018-07-25T02:11:12.216Z,7.17
2018-07-25T02:13:42.246Z,10.00
2018-07-25T02:16:12.336Z,7.27
2018-07-25T02:18:42.201Z,7.33
2018-07-25T02:21:12.473Z,10.60
2018-07-25T02:23:42.812Z,10.20
2018-07-25T02:26:13.327Z,10.53
2018-07-25T02:28:43.177Z,7.63
2018-07-25T02:31:14.490Z,8.10
2018-07-25T02:33:50.084Z,7.93
2018-07-25T02:36:20.218Z,7.40
2018-07-25T02:38:50.407Z,12.10
2018-07-25T02:41:20.559Z,8.03
2018-07-25T02:43:51.298Z,10.23
2018-07-25T02:46:21.969Z,8.80
2018-07-25T02:48:52.259Z,9.33
2018-07-25T02:51:22.391Z,7.30
2018-07-25T02:53:52.670Z,7.60
2018-07-25T02:56:23.141Z,7.00
2018-07-25T02:58:53.601Z,8.77
2018-07-25T03:01:23.703Z,10.40
2018-07-25T03:03:53.909Z,9.80
2018-07-25T03:06:24.379Z,7.53
2018-07-25T03:08:54.577Z,9.43
2018-07-25T03:11:25.070Z,10.20
2018-07-25T03:13:55.584Z,9.17
2018-07-25T03:16:25.836Z,8.33
2018-07-25T03:18:55.990Z,8.87
2018-07-25T03:21:26.181Z,8.70
2018-07-25T03:23:56.406Z,9.23
2018-07-25T03:26:26.568Z,12.93
2018-07-25T03:28:56.914Z,11.93
2018-07-25T03:31:26.953Z,12.33
2018-07-25T03:33:57.285Z,9.20
2018-07-25T03:36:27.938Z,8.53
2018-07-25T03:38:58.281Z,10.03
2018-07-25T03:41:28.522Z,9.00
2018-07-25T03:43:58.892Z,9.13
2018-07-25T03:46:29.757Z,9.10
2018-07-25T03:49:00.061Z,12.30
2018-07-25T03:51:30.620Z,8.33
2018-07-25T03:54:01.619Z,9.33
2018-07-25T03:56:31.718Z,10.00
2018-07-25T03:59:01.903Z,9.00
2018-07-25T04:01:32.017Z,8.67
2018-07-25T04:04:02.103Z,12.70
2018-07-25T04:06:32.323Z,8.63
2018-07-25T04:09:02.485Z,13.10
2018-07-25T04:11:33.095Z,7.80
2018-07-25T04:14:03.326Z,8.23
2018-07-25T04:16:34.213Z,8.27
2018-07-25T04:19:04.443Z,9.80
2018-07-25T04:21:34.474Z,12.67
2018-07-25T04:24:04.614Z,8.10
2018-07-25T04:26:35.031Z,11.03
2018-07-25T04:29:05.266Z,8.33
2018-07-25T04:31:35.667Z,10.37
2018-07-25T04:34:05.975Z,8.13
2018-07-25T04:36:37.034Z,12.50
2018-07-25T04:39:10.306Z,8.93
2018-07-25T04:41:41.103Z,13.53
2018-07-25T04:44:11.462Z,9.23
2018-07-25T04:46:41.847Z,21.53
2018-07-25T04:49:12.197Z,11.80
2018-07-25T04:51:42.366Z,8.90
2018-07-25T04:54:13.054Z,8.50
2018-07-25T04:56:43.902Z,8.33
2018-07-25T04:59:14.427Z,9.63
2018-07-25T05:01:44.879Z,7.90
2018-07-25T05:04:15.327Z,8.73
2018-07-25T05:06:45.575Z,7.73
2018-07-25T05:09:15.732Z,6.03
2018-07-25T05:11:46.256Z,7.47
2018-07-25T05:14:16.956Z,8.60
2018-07-25T05:16:47.309Z,9.20
2018-07-25T05:19:17.815Z,6.70
2018-07-25T05:21:48.230Z,9.23
2018-07-25T05:24:18.546Z,5.80
2018-07-25T05:26:48.889Z,6.13
2018-07-25T05:29:19.726Z,6.07
2018-07-25T05:31:50.154Z,6.90
2018-07-25T05:34:20.396Z,5.10
2018-07-25T05:36:50.678Z,8.03
2018-07-25T05:39:20.769Z,7.57
2018-07-25T05:41:51.413Z,5.57
2018-07-25T05:44:21.361Z,5.67
2018-07-25T05:46:51.466Z,13.43
2018-07-25T05:49:21.959Z,5.77
2018-07-25T05:51:52.903Z,9.70
2018-07-25T05:54:23.157Z,7.00
2018-07-25T05:56:53.686Z,8.70
2018-07-25T05:59:23.826Z,11.57
2018-07-25T06:01:53.947Z,5.03
2018-07-25T06:04:24.922Z,6.90
2018-07-25T06:06:55.616Z,4.87
2018-07-25T06:09:25.722Z,8.50
2018-07-25T06:11:56.085Z,6.33
2018-07-25T06:14:26.571Z,5.03
2018-07-25T06:16:56.839Z,8.80
2018-07-25T06:19:26.923Z,7.03
2018-07-25T06:21:57.527Z,7.73
2018-07-25T06:24:27.940Z,5.30
2018-07-25T06:26:58.453Z,6.93
2018-07-25T06:29:28.599Z,5.03
2018-07-25T06:31:59.082Z,4.77
2018-07-25T06:34:29.260Z,7.47
2018-07-25T06:36:59.106Z,5.27
2018-07-25T06:39:29.565Z,5.30
2018-07-25T06:41:59.876Z,4.87
2018-07-25T06:44:30.382Z,5.33
2018-07-25T06:47:00.758Z,6.70
2018-07-25T06:49:31.238Z,4.17
2018-07-25T06:52:01.684Z,4.67
2018-07-25T06:54:31.846Z,6.13
2018-07-25T06:57:02.213Z,6.20
2018-07-25T06:59:32.627Z,4.40
2018-07-25T07:02:02.624Z,6.33
2018-07-25T07:04:32.889Z,4.87
2018-07-25T07:07:02.957Z,7.73
2018-07-25T07:09:33.232Z,6.53
2018-07-25T07:12:03.793Z,5.00
2018-07-25T07:14:34.218Z,4.57
2018-07-25T07:17:05.175Z,12.60
2018-07-25T07:19:35.570Z,7.10
2018-07-25T07:22:06.143Z,5.30
2018-07-25T07:24:37.323Z,7.17
2018-07-25T07:27:07.993Z,4.70
2018-07-25T07:29:38.319Z,10.33
2018-07-25T07:32:08.297Z,3.70
2018-07-25T07:34:38.340Z,4.23
2018-07-25T07:37:08.464Z,5.57
2018-07-25T07:39:38.396Z,4.33
2018-07-25T07:42:08.730Z,5.03
2018-07-25T07:44:39.520Z,4.10
2018-07-25T07:47:09.728Z,4.23
2018-07-25T07:49:39.691Z,5.23
2018-07-25T07:52:09.996Z,5.00
2018-07-25T07:54:40.156Z,6.27
2018-07-25T07:57:11.406Z,4.53
2018-07-25T07:59:42.036Z,6.93
2018-07-25T08:02:12.102Z,6.43
2018-07-25T08:04:42.224Z,8.40
2018-07-25T08:07:12.428Z,4.80
2018-07-25T08:09:42.673Z,4.50
2018-07-25T08:12:12.807Z,4.17
2018-07-25T08:14:42.984Z,4.53
2018-07-25T08:17:12.812Z,10.47
2018-07-25T08:19:43.001Z,3.80
2018-07-25T08:22:13.170Z,5.90
2018-07-25T08:24:46.076Z,11.30
2018-07-25T08:27:15.974Z,4.13
2018-07-25T08:29:46.007Z,4.07
2018-07-25T08:32:16.891Z,3.83
2018-07-25T08:34:47.530Z,5.37
2018-07-25T08:37:17.871Z,4.00
2018-07-25T08:39:47.828Z,4.07
2018-07-25T08:42:17.908Z,7.17
2018-07-25T08:44:47.676Z,5.70
2018-07-25T08:47:17.662Z,3.63
2018-07-25T08:49:47.839Z,7.63
2018-07-25T08:52:17.699Z,4.20
2018-07-25T08:54:47.702Z,4.80
2018-07-25T08:57:18.995Z,4.40
2018-07-25T08:59:49.263Z,2.73
2018-07-25T09:02:19.063Z,2.77
2018-07-25T09:04:48.931Z,4.63
2018-07-25T09:07:18.866Z,5.03
2018-07-25T09:09:48.753Z,3.60
2018-07-25T09:12:19.153Z,3.60
2018-07-25T09:14:49.590Z,6.80
2018-07-25T09:17:19.683Z,4.73
2018-07-25T09:19:50.635Z,3.93
2018-07-25T09:22:20.781Z,4.13
2018-07-25T09:24:51.050Z,5.20
2018-07-25T09:27:20.893Z,5.37
2018-07-25T09:29:51.084Z,3.20
2018-07-25T09:32:21.360Z,3.87
2018-07-25T09:34:51.353Z,6.80
2018-07-25T09:37:21.246Z,4.40
2018-07-25T09:39:51.046Z,5.07
2018-07-25T09:42:21.160Z,4.50
2018-07-25T09:44:51.798Z,4.50
2018-07-25T09:47:22.028Z,4.47
2018-07-25T09:49:52.344Z,4.67
2018-07-25T09:52:22.730Z,6.13
2018-07-25T09:54:52.858Z,4.10
2018-07-25T09:57:23.814Z,4.50
2018-07-25T09:59:54.097Z,7.53
2018-07-25T10:02:24.175Z,4.43
2018-07-25T10:04:54.656Z,3.27
2018-07-25T10:07:24.919Z,6.03
2018-07-25T10:09:55.364Z,3.90
2018-07-25T10:12:25.842Z,5.90
2018-07-25T10:14:56.042Z,3.60
2018-07-25T10:17:27.353Z,4.20
2018-07-25T10:19:57.641Z,8.27
2018-07-25T10:22:27.809Z,5.37
2018-07-25T10:24:57.915Z,4.20
2018-07-25T10:27:27.965Z,3.90
2018-07-25T10:29:58.303Z,3.97
2018-07-25T10:32:28.659Z,4.70
2018-07-25T10:34:59.028Z,4.73
2018-07-25T10:37:30.161Z,3.73
2018-07-25T10:40:00.478Z,3.50
2018-07-25T10:42:31.223Z,3.40
2018-07-25T10:45:01.917Z,5.23
2018-07-25T10:47:31.929Z,3.70
2018-07-25T10:50:02.502Z,5.90
2018-07-25T10:52:32.872Z,3.10
2018-07-25T10:55:03.526Z,3.43
2018-07-25T10:57:34.310Z,9.00
2018-07-25T11:00:06.581Z,6.77
2018-07-25T11:02:37.814Z,4.20
2018-07-25T11:05:08.516Z,3.70
2018-07-25T11:07:39.029Z,4.30
2018-07-25T11:10:09.511Z,4.97
2018-07-25T11:12:39.865Z,3.60
2018-07-25T11:15:10.059Z,3.20
2018-07-25T11:17:40.576Z,3.47
2018-07-25T11:20:10.648Z,3.37
2018-07-25T11:22:40.671Z,3.70
2018-07-25T11:25:10.725Z,3.07
2018-07-25T11:27:40.960Z,2.97
2018-07-25T11:30:11.082Z,4.60
2018-07-25T11:32:41.190Z,5.83
2018-07-25T11:35:11.300Z,3.50
2018-07-25T11:37:41.691Z,7.00
2018-07-25T11:40:11.414Z,4.63
2018-07-25T11:42:41.344Z,4.00
2018-07-25T11:45:11.806Z,3.70
2018-07-25T11:47:42.157Z,5.37
2018-07-25T11:50:12.375Z,3.47
2018-07-25T11:52:42.223Z,3.57
2018-07-25T11:55:12.522Z,4.53
2018-07-25T11:57:42.483Z,5.80
2018-07-25T12:00:13.096Z,4.33
2018-07-25T12:02:43.324Z,3.50
2018-07-25T12:05:13.204Z,2.87
2018-07-25T12:07:43.441Z,8.37
2018-07-25T12:10:13.694Z,4.83
2018-07-25T12:12:44.699Z,2.97
2018-07-25T12:15:15.358Z,3.70
2018-07-25T12:17:46.582Z,2.83
2018-07-25T12:20:16.517Z,5.90
2018-07-25T12:22:46.898Z,4.77
2018-07-25T12:25:17.190Z,5.30
2018-07-25T12:27:47.756Z,5.40
2018-07-25T12:30:18.352Z,8.17
2018-07-25T12:32:48.600Z,3.50
2018-07-25T12:35:18.742Z,3.47
2018-07-25T12:37:49.032Z,4.53
2018-07-25T12:40:19.379Z,3.57
2018-07-25T12:42:49.472Z,4.30
2018-07-25T12:45:19.687Z,3.17
2018-07-25T12:47:50.157Z,8.00
2018-07-25T12:50:20.195Z,7.67
2018-07-25T12:52:50.283Z,3.00
2018-07-25T12:55:20.450Z,2.53
2018-07-25T12:57:50.940Z,7.57
2018-07-25T13:00:21.605Z,2.70
2018-07-25T13:02:51.777Z,3.40
2018-07-25T13:05:22.023Z,7.53
2018-07-25T13:07:52.159Z,5.27
2018-07-25T13:10:22.532Z,3.27
2018-07-25T13:12:52.992Z,4.03
2018-07-25T13:15:23.017Z,5.57
2018-07-25T13:17:53.343Z,2.97
2018-07-25T13:20:24.116Z,5.40
2018-07-25T13:22:54.656Z,3.90
2018-07-25T13:25:25.159Z,9.80
2018-07-25T13:27:55.707Z,4.90
2018-07-25T13:30:25.611Z,3.20
2018-07-25T13:32:55.700Z,3.67
2018-07-25T13:35:26.301Z,2.80
2018-07-25T13:37:58.016Z,3.57
2018-07-25T13:40:28.001Z,6.97
2018-07-25T13:42:58.386Z,3.90
2018-07-25T13:45:29.288Z,3.80
2018-07-25T13:47:59.735Z,3.73
2018-07-25T13:50:30.070Z,3.90
2018-07-25T13:53:00.509Z,7.10
2018-07-25T13:55:30.355Z,4.30
2018-07-25T13:58:01.260Z,4.40
2018-07-25T14:00:31.327Z,3.00
2018-07-25T14:03:01.401Z,3.23
2018-07-25T14:05:31.709Z,5.63
2018-07-25T14:08:02.173Z,3.83
2018-07-25T14:10:32.437Z,4.57
2018-07-25T14:13:04.996Z,3.30
2018-07-25T14:15:34.995Z,2.87
2018-07-25T14:18:05.741Z,3.17
2018-07-25T14:20:36.271Z,4.40
2018-07-25T14:23:06.878Z,3.10
2018-07-25T14:25:36.828Z,3.47
2018-07-25T14:28:07.411Z,4.20
2018-07-25T14:30:37.699Z,2.83
2018-07-25T14:33:08.623Z,3.87
2018-07-25T14:35:38.858Z,3.27
2018-07-25T14:38:09.356Z,5.33
2018-07-25T14:40:39.541Z,5.13
2018-07-25T14:43:09.817Z,3.50
2018-07-25T14:45:40.359Z,4.10
2018-07-25T14:48:10.235Z,3.60
2018-07-25T14:50:41.073Z,3.40
2018-07-25T14:53:11.266Z,3.30
2018-07-25T14:55:41.217Z,5.90
2018-07-25T14:58:11.645Z,3.90
2018-07-25T15:00:42.087Z,4.60
2018-07-25T15:03:13.244Z,4.03
2018-07-25T15:05:43.395Z,3.47
2018-07-25T15:08:13.671Z,3.57
2018-07-25T15:10:43.733Z,4.50
2018-07-25T15:13:13.984Z,3.40
2018-07-25T15:15:44.478Z,4.27
2018-07-25T15:18:14.721Z,3.43
2018-07-25T15:20:45.522Z,3.93
2018-07-25T15:23:25.412Z,3.30
2018-07-25T15:25:55.745Z,4.70
2018-07-25T15:28:26.123Z,3.37
2018-07-25T15:30:56.344Z,3.30
2018-07-25T15:33:27.594Z,3.90
2018-07-25T15:35:57.797Z,3.07
2018-07-25T15:38:28.184Z,2.90
2018-07-25T15:40:59.868Z,3.40
2018-07-25T15:43:29.987Z,2.93
2018-07-25T15:46:00.318Z,4.00
2018-07-25T15:48:31.201Z,3.10
2018-07-25T15:51:01.387Z,4.20
2018-07-25T15:53:31.598Z,5.00
2018-07-25T15:56:01.978Z,3.80
2018-07-25T15:58:32.164Z,2.80
2018-07-25T16:01:02.401Z,3.60
2018-07-25T16:03:32.484Z,5.73
2018-07-25T16:06:02.577Z,4.97
2018-07-25T16:08:32.915Z,5.60
2018-07-25T16:11:02.750Z,8.93
2018-07-25T16:13:33.247Z,8.10
2018-07-25T16:16:03.849Z,7.03
2018-07-25T16:18:34.009Z,3.23
2018-07-25T16:21:03.872Z,7.03
2018-07-25T16:23:34.622Z,4.13
2018-07-25T16:26:05.246Z,4.43
2018-07-25T16:28:35.585Z,3.27
2018-07-25T16:31:05.506Z,3.27
2018-07-25T16:33:35.732Z,3.77
2018-07-25T16:36:06.072Z,11.90
2018-07-25T16:38:36.571Z,4.47
2018-07-25T16:41:06.907Z,4.20
2018-07-25T16:43:37.007Z,3.93
2018-07-25T16:46:07.214Z,4.20
2018-07-25T16:48:38.651Z,3.73
2018-07-25T16:51:09.137Z,3.90
2018-07-25T16:53:39.405Z,5.70
2018-07-25T16:56:10.247Z,3.90
2018-07-25T16:58:40.793Z,7.13
2018-07-25T17:01:11.139Z,4.10
2018-07-25T17:03:41.241Z,8.17
2018-07-25T17:06:11.245Z,4.40
2018-07-25T17:08:41.442Z,3.23
2018-07-25T17:11:12.546Z,3.20
2018-07-25T17:13:42.767Z,6.70
2018-07-25T17:16:13.065Z,3.90
2018-07-25T17:18:43.305Z,8.47
2018-07-25T17:21:13.239Z,2.90
2018-07-25T17:23:43.344Z,1.50
2018-07-25T17:26:14.682Z,4.00
2018-07-25T17:28:45.047Z,1.73
2018-07-25T17:31:15.227Z,1.80
2018-07-25T17:33:45.906Z,1.90
2018-07-25T17:36:16.761Z,3.60
2018-07-25T17:38:47.046Z,1.80
2018-07-25T17:41:19.250Z,5.33
2018-07-25T17:43:49.545Z,10.23
2018-07-25T17:46:19.909Z,1.57
2018-07-25T17:48:50.350Z,1.37
2018-07-25T17:51:20.957Z,1.57
2018-07-25T17:53:52.017Z,3.07
2018-07-25T17:56:22.126Z,1.30
2018-07-25T17:58:52.225Z,1.10
2018-07-25T18:01:22.588Z,1.87
2018-07-25T18:03:53.107Z,1.00
2018-07-25T18:06:23.517Z,1.50
2018-07-25T18:08:53.580Z,1.37
2018-07-25T18:11:24.750Z,2.60
2018-07-25T18:13:59.861Z,1.40
2018-07-25T18:16:30.196Z,1.80
2018-07-25T18:19:00.395Z,1.43
2018-07-25T18:21:30.737Z,1.30
2018-07-25T18:24:01.297Z,4.57
2018-07-25T18:26:31.678Z,1.50
2018-07-25T18:29:01.960Z,1.60
2018-07-25T18:31:32.707Z,2.70
2018-07-25T18:34:03.120Z,6.47
2018-07-25T18:36:35.285Z,1.93
2018-07-25T18:39:08.515Z,1.80
2018-07-25T18:41:39.477Z,2.20
2018-07-25T18:44:10.439Z,4.73
2018-07-25T18:46:44.319Z,2.93
2018-07-25T18:49:15.279Z,3.43
2018-07-25T18:51:45.421Z,3.07
2018-07-25T18:54:16.035Z,2.80
2018-07-25T18:56:46.277Z,2.60
2018-07-25T18:59:17.791Z,2.70
2018-07-25T19:01:47.785Z,2.23
2018-07-25T19:04:17.919Z,3.37
2018-07-25T19:06:48.171Z,3.17
2018-07-25T19:09:17.927Z,4.50
2018-07-25T19:11:47.964Z,2.97
2018-07-25T19:14:23.423Z,2.50
2018-07-25T19:16:53.894Z,3.77
2018-07-25T19:19:23.676Z,2.40
2018-07-25T19:21:53.820Z,2.70
2018-07-25T19:24:24.097Z,2.70
2018-07-25T19:26:54.009Z,2.40
2018-07-25T19:29:24.459Z,3.20
2018-07-25T19:31:54.555Z,3.10
2018-07-25T19:34:25.295Z,2.20
2018-07-25T19:36:55.506Z,3.70
2018-07-25T19:39:29.300Z,4.00
2018-07-25T19:41:59.680Z,3.10
2018-07-25T19:44:29.950Z,3.87
2018-07-25T19:47:00.390Z,3.13
2018-07-25T19:49:31.164Z,4.47
2018-07-25T19:52:02.198Z,10.40
2018-07-25T19:54:33.291Z,2.37
2018-07-25T19:57:03.838Z,2.93
2018-07-25T19:59:34.389Z,3.33
2018-07-25T20:02:04.705Z,3.57
2018-07-25T20:04:34.838Z,3.77
2018-07-25T20:07:05.469Z,5.10
2018-07-25T20:09:36.188Z,4.00
2018-07-25T20:12:06.445Z,4.33
2018-07-25T20:14:42.385Z,3.43
2018-07-25T20:17:13.584Z,3.13
2018-07-25T20:19:44.017Z,3.40
2018-07-25T20:22:15.140Z,3.53
2018-07-25T20:24:45.602Z,2.80
2018-07-25T20:27:16.209Z,2.87
2018-07-25T20:29:46.943Z,4.67
2018-07-25T20:32:17.469Z,2.90
2018-07-25T20:34:47.648Z,5.10
2018-07-25T20:37:18.094Z,3.97
2018-07-25T20:39:48.355Z,6.53
2018-07-25T20:42:19.434Z,5.87
2018-07-25T20:44:49.662Z,2.87
2018-07-25T20:47:20.952Z,2.80
2018-07-25T20:49:51.415Z,4.20
2018-07-25T20:52:22.012Z,4.73
2018-07-25T20:54:52.438Z,2.57
2018-07-25T20:57:22.762Z,2.83
2018-07-25T20:59:52.934Z,2.40
2018-07-25T21:02:23.253Z,2.53
2018-07-25T21:04:53.997Z,2.40
2018-07-25T21:07:24.513Z,3.60
2018-07-25T21:09:54.433Z,3.17
2018-07-25T21:12:24.444Z,2.40
2018-07-25T21:14:54.570Z,2.70
2018-07-25T21:17:24.483Z,2.67
2018-07-25T21:19:54.430Z,3.73
2018-07-25T21:22:24.343Z,3.20
2018-07-25T21:24:54.459Z,2.93
2018-07-25T21:27:24.558Z,3.40
2018-07-25T21:29:54.387Z,2.50
2018-07-25T21:32:24.345Z,4.30
2018-07-25T21:34:54.285Z,1.83
2018-07-25T21:39:59.187Z,2.70
2018-07-25T21:42:29.151Z,2.53
2018-07-25T21:44:59.513Z,1.90
2018-07-25T21:47:29.416Z,2.80
2018-07-25T21:50:00.388Z,1.93
2018-07-25T21:52:30.562Z,2.50
2018-07-25T21:55:00.493Z,3.83
2018-07-25T21:57:30.500Z,5.73
2018-07-25T22:00:00.396Z,3.20
2018-07-25T22:02:30.860Z,3.03
2018-07-25T22:05:00.981Z,3.63
2018-07-25T22:07:30.895Z,5.63
2018-07-25T22:10:00.868Z,1.83
2018-07-25T22:12:30.877Z,2.70
2018-07-25T22:15:01.105Z,2.57
2018-07-25T22:17:34.177Z,7.03
2018-07-25T22:20:04.181Z,2.50
2018-07-25T22:22:34.154Z,6.40
2018-07-25T22:25:04.232Z,2.20
2018-07-25T22:27:34.214Z,2.57
2018-07-25T22:30:04.087Z,2.50
2018-07-25T22:32:34.046Z,2.30
2018-07-25T22:35:04.044Z,1.77
2018-07-25T22:37:34.331Z,2.60
2018-07-25T22:40:05.060Z,1.90
2018-07-25T22:42:34.936Z,2.20
2018-07-25T22:45:04.897Z,2.03
2018-07-25T22:47:36.323Z,2.03
2018-07-25T22:50:06.182Z,2.03
2018-07-25T22:52:36.233Z,2.90
2018-07-25T22:55:06.271Z,2.00
2018-07-25T22:57:36.266Z,3.23
2018-07-25T23:00:07.050Z,3.63
2018-07-25T23:02:36.944Z,2.20
2018-07-25T23:05:06.990Z,2.30
2018-07-25T23:07:37.848Z,3.40
2018-07-25T23:10:07.755Z,3.20
2018-07-25T23:12:37.641Z,1.97
2018-07-25T23:15:08.649Z,1.90
2018-07-25T23:17:38.580Z,2.67
2018-07-25T23:20:08.540Z,2.40
2018-07-25T23:22:49.574Z,1.80
2018-07-25T23:25:19.639Z,4.10
2018-07-25T23:27:49.651Z,2.30
2018-07-25T23:30:19.748Z,1.70
2018-07-25T23:32:50.689Z,2.67
2018-07-25T23:35:21.203Z,6.03
2018-07-25T23:37:51.949Z,2.30
2018-07-25T23:40:23.513Z,2.57
2018-07-25T23:42:53.620Z,2.07
2018-07-25T23:45:23.710Z,2.73
2018-07-25T23:47:54.147Z,2.17
2018-07-25T23:50:24.591Z,2.40
2018-07-25T23:52:54.497Z,2.70
2018-07-25T23:55:24.455Z,2.10
2018-07-25T23:57:55.139Z,2.20
